Time;durP1;ratioP1;P1;durP2;ratioP2;P2;SDS_P1;SDS_P2;PMS_P1;PMS_P2;Temp;Humidity;BMP_temperature;BMP_pressure;BME280_temperature;BME280_humidity;BME280_pressure;Samples;Min_cycle;Max_cycle;Signal;HPM_P1;HPM_P2
2021/09/06 00:02:12;;;;;;;4.38;3.85;;;21.20;81.50;;;;;;5093011;28;20028;-78
2021/09/06 00:04:38;;;;;;;5.30;3.70;;;21.10;81.50;;;;;;5093121;28;20479;-78
2021/09/06 00:07:04;;;;;;;3.83;3.42;;;21.10;81.50;;;;;;5091391;28;20056;-78
2021/09/06 00:09:33;;;;;;;3.72;3.42;;;21.10;81.50;;;;;;5074842;28;20560;-78
2021/09/06 00:11:59;;;;;;;4.45;4.05;;;21.10;81.80;;;;;;5072820;28;20032;-78
2021/09/06 00:14:25;;;;;;;4.32;3.65;;;21.00;81.80;;;;;;5061228;28;20026;-78
2021/09/06 00:16:50;;;;;;;4.90;3.97;;;21.00;81.90;;;;;;5055050;28;20399;-78
2021/09/06 00:19:17;;;;;;;4.57;3.15;;;21.00;82.30;;;;;;5072756;28;20033;-78
2021/09/06 00:21:42;;;;;;;4.47;4.05;;;20.90;82.40;;;;;;5072926;28;20087;-78
2021/09/06 00:24:08;;;;;;;4.85;4.28;;;20.90;83.00;;;;;;5072709;28;20435;-78
2021/09/06 00:26:34;;;;;;;4.13;3.83;;;20.80;83.40;;;;;;5072776;28;20046;-78
2021/09/06 00:29:00;;;;;;;4.68;3.47;;;20.70;83.60;;;;;;5072296;28;20078;-78
2021/09/06 00:31:25;;;;;;;3.75;3.38;;;20.70;83.70;;;;;;5072806;28;20033;-78
2021/09/06 00:33:51;;;;;;;4.13;3.72;;;20.60;83.90;;;;;;5070942;28;20051;-78
2021/09/06 00:36:17;;;;;;;5.03;3.97;;;20.60;83.90;;;;;;5072413;28;20103;-78
2021/09/06 00:38:43;;;;;;;3.78;3.45;;;20.60;84.20;;;;;;5072497;28;20036;-78
2021/09/06 00:41:09;;;;;;;4.05;3.65;;;20.60;83.90;;;;;;5072609;28;20587;-78
2021/09/06 00:43:36;;;;;;;3.85;3.55;;;20.60;83.90;;;;;;5072510;28;20495;-77
2021/09/06 00:46:03;;;;;;;4.32;3.92;;;20.60;83.90;;;;;;5054496;28;20032;-78
2021/09/06 00:48:30;;;;;;;7.32;4.22;;;20.60;84.10;;;;;;5075667;28;20069;-78
2021/09/06 00:50:56;;;;;;;3.88;3.58;;;20.60;84.30;;;;;;5058501;28;20039;-78
2021/09/06 00:53:22;;;;;;;4.18;3.75;;;20.60;84.20;;;;;;5076335;28;20021;-78
2021/09/06 00:55:50;;;;;;;5.43;3.78;;;20.50;84.30;;;;;;5076417;28;20032;-78
2021/09/06 00:58:16;;;;;;;5.03;3.75;;;20.50;84.40;;;;;;5076251;28;20012;-78
2021/09/06 01:00:42;;;;;;;4.53;3.85;;;20.50;84.50;;;;;;5058543;28;20082;-78
2021/09/06 01:03:08;;;;;;;4.95;4.03;;;20.50;84.50;;;;;;5067744;28;20051;-78
2021/09/06 01:05:33;;;;;;;4.53;4.00;;;20.50;84.60;;;;;;5093056;28;20395;-78
2021/09/06 01:07:59;;;;;;;4.53;3.88;;;20.30;85.60;;;;;;5096338;28;20012;-78
2021/09/06 01:10:25;;;;;;;3.92;3.33;;;20.30;86.10;;;;;;5078085;28;20081;-78
2021/09/06 01:12:51;;;;;;;4.60;4.10;;;20.30;86.30;;;;;;5096386;28;20954;-78
2021/09/06 01:15:16;;;;;;;4.32;3.92;;;20.20;86.10;;;;;;5065473;28;20029;-76
2021/09/06 01:17:43;;;;;;;7.40;3.95;;;20.30;85.80;;;;;;5076035;28;20038;-76
2021/09/06 01:20:11;;;;;;;4.20;3.80;;;20.30;86.10;;;;;;5075919;28;20012;-76
2021/09/06 01:22:37;;;;;;;4.60;4.20;;;20.30;85.90;;;;;;5076169;28;20020;-76
2021/09/06 01:25:05;;;;;;;3.92;3.60;;;20.30;85.90;;;;;;5077256;28;20078;-76
2021/09/06 01:27:31;;;;;;;6.78;3.60;;;20.20;86.50;;;;;;5075767;28;20029;-76
2021/09/06 01:29:59;;;;;;;4.03;3.70;;;20.10;86.80;;;;;;5075216;28;20106;-76
2021/09/06 01:32:25;;;;;;;3.67;3.38;;;20.10;86.90;;;;;;5075630;28;20077;-76
2021/09/06 01:34:51;;;;;;;4.22;3.83;;;20.20;86.90;;;;;;5057375;28;20097;-76
2021/09/06 01:37:17;;;;;;;4.35;3.95;;;20.20;87.10;;;;;;5075398;28;20032;-75
2021/09/06 01:39:43;;;;;;;4.53;3.90;;;20.10;87.10;;;;;;5075385;28;20036;-76
2021/09/06 01:42:09;;;;;;;6.13;3.92;;;20.20;87.00;;;;;;5075260;28;20028;-76
2021/09/06 01:44:34;;;;;;;4.55;3.90;;;20.20;86.70;;;;;;5067944;28;20098;-76
2021/09/06 01:47:00;;;;;;;5.78;4.10;;;20.20;87.00;;;;;;5095367;28;20091;-76
2021/09/06 01:49:26;;;;;;;4.45;4.05;;;20.10;86.80;;;;;;5075747;28;20079;-76
2021/09/06 01:51:51;;;;;;;4.28;3.97;;;20.10;86.50;;;;;;5075119;28;20027;-76
2021/09/06 01:54:17;;;;;;;4.70;4.30;;;20.20;86.00;;;;;;5075041;28;20042;-76
2021/09/06 01:56:43;;;;;;;4.60;4.20;;;20.30;85.70;;;;;;5074902;28;20031;-76
2021/09/06 01:59:08;;;;;;;4.15;3.67;;;20.30;85.60;;;;;;5056205;28;20115;-76
2021/09/06 02:01:34;;;;;;;4.32;3.63;;;20.40;85.50;;;;;;5074976;28;20420;-76
2021/09/06 02:04:00;;;;;;;4.18;3.22;;;20.30;86.00;;;;;;5074865;28;20024;-76
2021/09/06 02:06:26;;;;;;;6.70;3.40;;;20.30;86.20;;;;;;5074861;28;20422;-75
2021/09/06 02:08:51;;;;;;;5.43;3.67;;;20.20;86.40;;;;;;5074814;28;20099;-75
2021/09/06 02:11:17;;;;;;;7.10;3.90;;;20.20;86.50;;;;;;5057065;28;20024;-76
2021/09/06 02:13:43;;;;;;;6.55;3.85;;;20.20;86.20;;;;;;5056448;28;20032;-76
2021/09/06 02:16:08;;;;;;;4.45;3.20;;;20.20;86.00;;;;;;5074653;28;20016;-76
2021/09/06 02:18:34;;;;;;;5.85;4.25;;;20.20;86.20;;;;;;5074636;28;20035;-76
2021/09/06 02:21:00;;;;;;;3.65;3.35;;;20.20;86.40;;;;;;5068923;28;20028;-75
2021/09/06 02:23:26;;;;;;;4.38;3.88;;;20.20;86.10;;;;;;5094910;28;20032;-76
2021/09/06 02:25:52;;;;;;;4.15;3.60;;;20.20;86.20;;;;;;5094798;28;20017;-76
2021/09/06 02:28:17;;;;;;;4.35;3.95;;;20.20;85.80;;;;;;5094356;28;20044;-76
2021/09/06 02:30:43;;;;;;;4.00;3.60;;;20.20;86.00;;;;;;5094547;28;20487;-76
2021/09/06 02:33:09;;;;;;;4.38;3.80;;;20.20;86.20;;;;;;5075057;28;20028;-76
2021/09/06 02:35:35;;;;;;;3.67;3.38;;;20.20;86.30;;;;;;5074350;28;20081;-76
2021/09/06 02:38:01;;;;;;;5.30;3.67;;;20.10;86.60;;;;;;5074037;28;20033;-76
2021/09/06 02:40:27;;;;;;;4.63;3.92;;;20.10;86.70;;;;;;5074270;28;20032;-76
2021/09/06 02:42:52;;;;;;;4.90;4.43;;;20.00;86.80;;;;;;5074232;28;20025;-76
2021/09/06 02:45:18;;;;;;;4.35;3.95;;;19.90;87.00;;;;;;5086342;28;20114;-76
2021/09/06 02:47:46;;;;;;;4.57;3.95;;;19.90;87.00;;;;;;5073668;28;20101;-76
2021/09/06 02:50:12;;;;;;;4.10;3.70;;;19.90;86.90;;;;;;5073866;28;20163;-75
2021/09/06 02:52:38;;;;;;;6.18;4.07;;;19.90;86.50;;;;;;5073883;28;20025;-75
2021/09/06 02:55:05;;;;;;;3.92;3.53;;;20.00;86.40;;;;;;5073872;28;20027;-75
2021/09/06 02:57:31;;;;;;;4.65;3.40;;;19.90;86.60;;;;;;5073754;28;20020;-76
2021/09/06 02:59:56;;;;;;;4.00;3.55;;;19.90;86.70;;;;;;5072396;28;20032;-76
2021/09/06 03:02:22;;;;;;;3.55;3.25;;;19.90;86.20;;;;;;5073647;28;20087;-75
2021/09/06 03:04:48;;;;;;;4.18;3.70;;;19.90;86.30;;;;;;5073771;28;20021;-76
2021/09/06 03:07:14;;;;;;;5.22;3.63;;;19.90;86.30;;;;;;5073541;28;20095;-75
2021/09/06 03:09:40;;;;;;;3.75;3.40;;;19.90;86.30;;;;;;5072634;28;20063;-75
2021/09/06 03:12:06;;;;;;;4.00;3.30;;;19.90;86.10;;;;;;5073543;28;20066;-76
2021/09/06 03:14:32;;;;;;;10.27;3.72;;;19.80;86.00;;;;;;5073537;28;20052;-76
2021/09/06 03:16:59;;;;;;;7.18;3.80;;;19.80;85.70;;;;;;5073614;28;20021;-75
2021/09/06 03:19:25;;;;;;;4.57;4.15;;;19.80;85.60;;;;;;5055356;28;20059;-76
2021/09/06 03:21:50;;;;;;;7.22;3.45;;;19.70;85.40;;;;;;5073227;28;20056;-76
2021/09/06 03:24:16;;;;;;;4.57;3.25;;;19.80;85.30;;;;;;5073221;28;20665;-75
2021/09/06 03:26:42;;;;;;;4.07;3.45;;;19.80;84.70;;;;;;5073292;28;20465;-76
2021/09/06 03:29:08;;;;;;;3.58;3.28;;;19.80;84.30;;;;;;5054879;28;20044;-75
2021/09/06 03:31:33;;;;;;;3.63;3.33;;;19.80;84.00;;;;;;5073100;28;20513;-76
2021/09/06 03:34:00;;;;;;;3.95;3.28;;;19.80;83.70;;;;;;5073192;28;20123;-76
2021/09/06 03:36:26;;;;;;;5.97;3.75;;;19.80;83.60;;;;;;5073172;28;20020;-76
2021/09/06 03:38:53;;;;;;;3.83;3.33;;;19.60;83.80;;;;;;5054814;28;20044;-75
2021/09/06 03:41:19;;;;;;;4.10;3.80;;;19.60;84.70;;;;;;5072358;28;20656;-75
2021/09/06 03:43:45;;;;;;;4.20;3.80;;;19.60;84.00;;;;;;5075876;28;20028;-75
2021/09/06 03:46:11;;;;;;;3.40;3.10;;;19.60;83.60;;;;;;5091749;28;20146;-76
2021/09/06 03:48:37;;;;;;;6.97;3.75;;;19.60;83.40;;;;;;5092201;28;20028;-75
2021/09/06 03:51:03;;;;;;;4.15;3.78;;;19.60;83.10;;;;;;5091389;28;20032;-75
2021/09/06 03:53:29;;;;;;;4.03;3.70;;;19.70;83.10;;;;;;5074896;28;20030;-75
2021/09/06 03:55:54;;;;;;;3.53;3.22;;;19.60;82.50;;;;;;5093120;28;20028;-75
2021/09/06 03:58:20;;;;;;;3.65;3.35;;;19.60;82.60;;;;;;5072995;28;20021;-75
2021/09/06 04:00:46;;;;;;;3.72;3.33;;;19.50;83.10;;;;;;5072867;28;20036;-75
2021/09/06 04:03:11;;;;;;;3.78;3.20;;;19.50;83.30;;;;;;5071221;28;20016;-75
2021/09/06 04:05:39;;;;;;;3.55;3.25;;;19.40;83.20;;;;;;5061222;28;20082;-75
2021/09/06 04:08:05;;;;;;;4.40;3.42;;;19.40;83.50;;;;;;5072535;28;20013;-75
2021/09/06 04:10:31;;;;;;;4.05;3.75;;;19.30;83.90;;;;;;5061891;28;20034;-75
2021/09/06 04:12:58;;;;;;;3.63;3.25;;;19.30;83.60;;;;;;5074710;28;20020;-75
2021/09/06 04:15:24;;;;;;;6.90;3.63;;;19.30;83.70;;;;;;5074620;28;20024;-76
2021/09/06 04:17:50;;;;;;;4.88;4.18;;;19.30;83.60;;;;;;5091446;28;20031;-75
2021/09/06 04:20:15;;;;;;;5.53;3.42;;;19.40;83.80;;;;;;5091377;28;20024;-75
2021/09/06 04:22:41;;;;;;;7.72;3.47;;;19.40;84.30;;;;;;5091114;28;20046;-75
2021/09/06 04:25:07;;;;;;;5.07;3.38;;;19.40;83.80;;;;;;5091384;28;20026;-75
2021/09/06 04:27:34;;;;;;;3.53;3.25;;;19.40;84.20;;;;;;5091253;28;20617;-75
2021/09/06 04:30:00;;;;;;;4.20;3.80;;;19.40;84.80;;;;;;5091465;28;20040;-76
2021/09/06 04:32:26;;;;;;;3.67;3.38;;;19.30;84.70;;;;;;5074789;28;20044;-75
2021/09/06 04:34:51;;;;;;;5.10;3.85;;;19.30;85.00;;;;;;5054176;28;20017;-76
2021/09/06 04:37:17;;;;;;;3.28;3.00;;;19.30;85.00;;;;;;5051017;28;20373;-75
2021/09/06 04:39:43;;;;;;;5.72;4.30;;;19.20;85.40;;;;;;5085168;28;20024;-76
2021/09/06 04:42:09;;;;;;;5.50;3.42;;;19.20;85.70;;;;;;5074876;28;20025;-75
2021/09/06 04:44:35;;;;;;;5.15;4.25;;;19.20;85.70;;;;;;5054430;28;20017;-75
2021/09/06 04:47:00;;;;;;;8.40;4.05;;;19.20;85.90;;;;;;5072307;28;20028;-75
2021/09/06 04:49:27;;;;;;;4.22;3.83;;;19.30;85.90;;;;;;5071806;28;20031;-75
2021/09/06 04:51:56;;;;;;;5.55;3.72;;;19.30;86.30;;;;;;5072523;28;20137;-76
2021/09/06 04:54:22;;;;;;;4.50;4.05;;;19.30;86.30;;;;;;5053906;28;20028;-78
2021/09/06 04:56:48;;;;;;;3.67;3.38;;;19.30;86.40;;;;;;5066424;28;20032;-78
2021/09/06 04:59:13;;;;;;;4.13;3.83;;;19.30;86.40;;;;;;5071824;28;20016;-76
2021/09/06 05:01:39;;;;;;;4.40;4.00;;;19.40;86.60;;;;;;5071609;28;20086;-76
2021/09/06 05:04:05;;;;;;;3.95;3.63;;;19.40;86.70;;;;;;5054336;28;20455;-76
2021/09/06 05:06:30;;;;;;;4.13;3.63;;;19.40;86.50;;;;;;5080682;28;20115;-76
2021/09/06 05:08:59;;;;;;;4.28;3.72;;;19.40;86.80;;;;;;5073592;28;20023;-75
2021/09/06 05:11:25;;;;;;;4.38;3.97;;;19.40;86.90;;;;;;5071998;28;20024;-76
2021/09/06 05:13:51;;;;;;;3.92;3.53;;;19.40;87.20;;;;;;5072072;28;20112;-75
2021/09/06 05:16:17;;;;;;;4.32;3.92;;;19.40;87.50;;;;;;5072046;28;20099;-75
2021/09/06 05:18:45;;;;;;;4.03;3.63;;;19.40;87.40;;;;;;5059885;28;20132;-75
2021/09/06 05:21:12;;;;;;;6.13;4.28;;;19.40;87.80;;;;;;5050521;28;20031;-76
2021/09/06 05:23:37;;;;;;;5.07;4.03;;;19.40;88.00;;;;;;5038065;28;20405;-75
2021/09/06 05:26:03;;;;;;;4.30;3.72;;;19.40;88.20;;;;;;5070553;28;20109;-76
2021/09/06 05:28:29;;;;;;;4.25;3.85;;;19.40;88.40;;;;;;5068958;28;20110;-76
2021/09/06 05:30:55;;;;;;;4.30;3.50;;;19.40;88.50;;;;;;5070382;28;20358;-76
2021/09/06 05:33:21;;;;;;;4.18;3.75;;;19.50;88.90;;;;;;5070604;28;20533;-76
2021/09/06 05:35:47;;;;;;;6.95;4.05;;;19.50;88.60;;;;;;5057027;28;20460;-76
2021/09/06 05:38:12;;;;;;;4.25;3.60;;;19.50;88.60;;;;;;5075205;28;20107;-76
2021/09/06 05:40:38;;;;;;;5.10;4.25;;;19.50;89.00;;;;;;5075319;28;20115;-75
2021/09/06 05:43:04;;;;;;;5.65;4.28;;;19.50;88.60;;;;;;5075340;28;20021;-76
2021/09/06 05:45:31;;;;;;;4.20;3.60;;;19.60;89.20;;;;;;5057392;28;20028;-75
2021/09/06 05:47:58;;;;;;;4.68;3.70;;;19.60;89.10;;;;;;5056992;28;20025;-75
2021/09/06 05:50:25;;;;;;;4.63;4.10;;;19.70;88.60;;;;;;5075140;28;20521;-75
2021/09/06 05:52:51;;;;;;;9.52;4.30;;;19.80;88.50;;;;;;5057133;28;20031;-76
2021/09/06 05:55:17;;;;;;;5.85;3.90;;;19.80;88.10;;;;;;5075037;28;20021;-76
2021/09/06 05:57:43;;;;;;;4.38;3.97;;;19.90;88.30;;;;;;5074821;28;20020;-73
2021/09/06 06:00:09;;;;;;;4.72;4.32;;;19.90;88.10;;;;;;5079076;28;20031;-73
2021/09/06 06:02:35;;;;;;;4.22;3.83;;;19.90;88.00;;;;;;5095028;28;20027;-73
2021/09/06 06:05:01;;;;;;;6.18;3.92;;;20.00;87.90;;;;;;5060364;28;20021;-73
2021/09/06 06:07:27;;;;;;;4.45;3.80;;;20.00;88.00;;;;;;5056676;28;20021;-76
2021/09/06 06:09:53;;;;;;;5.78;4.15;;;20.10;88.10;;;;;;5056844;28;20033;-76
2021/09/06 06:12:19;;;;;;;4.22;3.83;;;20.20;87.70;;;;;;5056689;28;20418;-74
2021/09/06 06:14:45;;;;;;;4.43;4.03;;;20.20;87.30;;;;;;5074640;28;20036;-75
2021/09/06 06:17:10;;;;;;;3.97;3.33;;;20.30;87.40;;;;;;5074421;28;20020;-75
2021/09/06 06:19:36;;;;;;;8.27;4.03;;;20.30;87.20;;;;;;5074824;28;20025;-75
2021/09/06 06:22:03;;;;;;;4.25;3.88;;;20.40;87.00;;;;;;5074230;28;20675;-75
2021/09/06 06:24:28;;;;;;;4.72;4.32;;;20.40;87.30;;;;;;5087506;28;20027;-75
2021/09/06 06:26:54;;;;;;;4.20;3.80;;;20.50;86.90;;;;;;5076267;28;20608;-75
2021/09/06 06:29:20;;;;;;;6.43;4.47;;;20.60;86.50;;;;;;5094398;28;20048;-75
2021/09/06 06:31:46;;;;;;;4.32;3.35;;;20.60;86.40;;;;;;5094742;28;20035;-75
2021/09/06 06:34:12;;;;;;;7.80;4.15;;;20.70;86.50;;;;;;5072206;28;20641;-75
2021/09/06 06:36:37;;;;;;;3.80;3.50;;;20.80;86.20;;;;;;5054341;28;20112;-75
2021/09/06 06:39:05;;;;;;;4.85;3.90;;;20.80;86.00;;;;;;5054251;28;20388;-75
2021/09/06 06:41:31;;;;;;;6.07;3.25;;;20.90;86.00;;;;;;5061562;28;20054;-75
2021/09/06 06:43:57;;;;;;;4.38;3.97;;;20.90;86.20;;;;;;5074019;28;20107;-75
2021/09/06 06:46:23;;;;;;;4.07;3.67;;;21.00;86.10;;;;;;5074631;28;20063;-75
2021/09/06 06:48:49;;;;;;;4.93;4.22;;;21.00;85.40;;;;;;5063353;28;20500;-75
2021/09/06 06:51:15;;;;;;;3.90;3.53;;;21.10;85.20;;;;;;5069348;28;20082;-75
2021/09/06 06:53:40;;;;;;;4.50;4.10;;;21.20;85.00;;;;;;5051820;28;20032;-75
2021/09/06 06:56:06;;;;;;;12.27;4.07;;;21.30;85.00;;;;;;5072634;28;20035;-75
2021/09/06 06:58:32;;;;;;;5.80;3.63;;;21.30;85.00;;;;;;5073164;28;20028;-75
2021/09/06 07:00:58;;;;;;;9.38;4.05;;;21.40;84.70;;;;;;5072213;28;20056;-75
2021/09/06 07:03:24;;;;;;;3.97;3.53;;;21.40;84.60;;;;;;5054780;28;20060;-75
2021/09/06 07:05:49;;;;;;;5.18;3.65;;;21.40;84.50;;;;;;5073435;28;20012;-75
2021/09/06 07:08:15;;;;;;;3.90;3.50;;;21.40;84.70;;;;;;5075858;28;20500;-75
2021/09/06 07:10:41;;;;;;;4.35;3.80;;;21.50;84.10;;;;;;5072795;28;20032;-75
2021/09/06 07:13:07;;;;;;;8.65;3.78;;;21.60;84.10;;;;;;5060991;28;20025;-75
2021/09/06 07:15:32;;;;;;;3.88;3.58;;;21.60;84.60;;;;;;5075704;28;20021;-75
2021/09/06 07:18:02;;;;;;;5.93;3.88;;;21.60;85.80;;;;;;5063063;28;20029;-76
2021/09/06 07:20:29;;;;;;;4.07;3.67;;;21.60;87.30;;;;;;5076167;28;20107;-75
2021/09/06 07:22:55;;;;;;;6.15;3.83;;;21.60;86.40;;;;;;5076988;28;20028;-75
2021/09/06 07:25:21;;;;;;;4.63;3.45;;;21.70;83.60;;;;;;5074533;28;20009;-75
2021/09/06 07:27:47;;;;;;;4.32;3.92;;;21.70;80.00;;;;;;5076708;28;20028;-75
2021/09/06 07:30:13;;;;;;;3.85;3.42;;;21.90;75.60;;;;;;5072474;28;20561;-75
2021/09/06 07:32:39;;;;;;;3.95;3.65;;;22.00;73.40;;;;;;5072201;28;20021;-75
2021/09/06 07:35:05;;;;;;;3.55;3.10;;;22.10;72.40;;;;;;5056009;28;20027;-75
2021/09/06 07:37:31;;;;;;;3.55;3.25;;;22.10;75.90;;;;;;5072041;28;20039;-75
2021/09/06 07:40:03;;;;;;;3.75;3.45;;;22.20;73.70;;;;;;5071914;28;20024;-75
2021/09/06 07:42:33;;;;;;;3.70;2.95;;;22.20;75.30;;;;;;5055082;28;20025;-75
2021/09/06 07:44:59;;;;;;;3.50;3.20;;;22.20;73.60;;;;;;5057854;28;20028;-75
2021/09/06 07:47:24;;;;;;;6.05;3.67;;;22.30;74.70;;;;;;5071279;28;20507;-75
2021/09/06 07:49:50;;;;;;;5.10;3.17;;;22.40;73.10;;;;;;5071716;28;20032;-75
2021/09/06 07:52:16;;;;;;;6.65;3.13;;;22.40;72.30;;;;;;5071923;28;20028;-75
2021/09/06 07:54:41;;;;;;;8.38;3.38;;;22.50;70.70;;;;;;5071494;28;20058;-75
2021/09/06 07:57:07;;;;;;;3.33;3.03;;;22.70;68.20;;;;;;5071151;28;20079;-75
2021/09/06 07:59:33;;;;;;;5.93;3.88;;;22.70;69.10;;;;;;5071787;28;20032;-75
2021/09/06 08:01:58;;;;;;;4.22;3.40;;;22.70;70.20;;;;;;5071597;28;20032;-75
2021/09/06 08:04:26;;;;;;;7.18;3.88;;;22.70;71.50;;;;;;5071539;28;20101;-74
2021/09/06 08:06:52;;;;;;;3.75;3.38;;;22.80;69.30;;;;;;5053561;28;20414;-75
2021/09/06 08:09:18;;;;;;;3.92;3.53;;;23.00;66.40;;;;;;5071088;28;20021;-75
2021/09/06 08:11:46;;;;;;;6.43;3.97;;;23.10;66.30;;;;;;5071381;28;20033;-74
2021/09/06 08:14:12;;;;;;;4.28;3.42;;;23.00;67.80;;;;;;5071414;28;20020;-75
2021/09/06 08:16:38;;;;;;;3.92;3.50;;;23.00;65.70;;;;;;5071425;28;20034;-75
2021/09/06 08:19:04;;;;;;;3.38;3.17;;;23.10;64.50;;;;;;5070950;28;20077;-75
2021/09/06 08:21:31;;;;;;;4.97;4.32;;;23.10;65.60;;;;;;5080008;28;20536;-75
2021/09/06 08:23:58;;;;;;;3.67;3.33;;;23.10;65.50;;;;;;5055552;28;20044;-75
2021/09/06 08:26:25;;;;;;;3.70;3.17;;;23.20;65.30;;;;;;5070610;28;20419;-75
2021/09/06 08:28:51;;;;;;;3.42;3.20;;;23.10;67.80;;;;;;5073906;28;20045;-75
2021/09/06 08:31:20;;;;;;;5.85;3.78;;;23.10;68.80;;;;;;5071613;28;20032;-75
2021/09/06 08:33:46;;;;;;;5.88;3.97;;;23.20;66.50;;;;;;5070657;28;20065;-75
2021/09/06 08:36:12;;;;;;;3.50;3.20;;;23.20;66.40;;;;;;5070814;28;20119;-75
2021/09/06 08:38:38;;;;;;;4.68;3.42;;;23.40;63.10;;;;;;5071221;28;20017;-75
2021/09/06 08:41:05;;;;;;;4.03;3.58;;;23.40;65.40;;;;;;5070858;28;20033;-75
2021/09/06 08:43:32;;;;;;;4.18;3.78;;;23.50;62.90;;;;;;5073958;28;20020;-75
2021/09/06 08:46:01;;;;;;;3.42;3.13;;;23.50;66.50;;;;;;5072191;28;20107;-75
2021/09/06 08:48:27;;;;;;;3.78;3.30;;;23.50;64.60;;;;;;5070898;28;20391;-75
2021/09/06 08:50:53;;;;;;;4.75;3.70;;;23.70;62.90;;;;;;5053516;28;20108;-75
2021/09/06 08:53:20;;;;;;;5.70;3.75;;;24.00;60.10;;;;;;5070401;28;20120;-75
2021/09/06 08:55:45;;;;;;;4.40;3.35;;;24.00;60.80;;;;;;5053243;28;20496;-75
2021/09/06 08:58:11;;;;;;;5.00;3.05;;;24.00;60.50;;;;;;5070304;28;20070;-75
2021/09/06 09:00:37;;;;;;;4.53;3.80;;;24.00;62.30;;;;;;5071372;28;20510;-75
2021/09/06 09:03:10;;;;;;;12.27;3.95;;;24.10;59.80;;;;;;5070715;28;20033;-75
2021/09/06 09:05:37;;;;;;;4.50;3.05;;;24.30;59.80;;;;;;5058752;28;20025;-76
2021/09/06 09:08:03;;;;;;;5.10;3.00;;;24.30;59.70;;;;;;5061877;28;20391;-75
2021/09/06 09:10:37;;;;;;;3.85;3.55;;;24.30;56.80;;;;;;5072807;28;20036;-75
2021/09/06 09:13:05;;;;;;;4.40;3.72;;;24.30;57.30;;;;;;5082931;28;20288;-75
2021/09/06 09:15:31;;;;;;;3.70;3.17;;;24.20;57.60;;;;;;5077514;28;20150;-75
2021/09/06 09:17:57;;;;;;;3.53;3.22;;;24.30;59.30;;;;;;5073544;28;20027;-75
2021/09/06 09:20:57;;;;;;;3.40;3.10;;;24.30;61.70;;;;;;5073752;28;20368;-75
2021/09/06 09:23:39;;;;;;;5.15;3.47;;;24.20;62.50;;;;;;5001733;28;20396;-75
2021/09/06 09:26:06;;;;;;;6.45;3.05;;;24.10;62.90;;;;;;5054984;28;20371;-75
2021/09/06 09:28:31;;;;;;;3.78;3.47;;;24.10;64.50;;;;;;5072563;28;20045;-75
2021/09/06 09:31:13;;;;;;;3.15;2.95;;;24.10;63.90;;;;;;5073680;28;20035;-75
2021/09/06 09:33:51;;;;;;;3.60;3.28;;;24.10;59.60;;;;;;5056154;28;20387;-75
2021/09/06 09:36:29;;;;;;;4.65;3.20;;;24.20;60.10;;;;;;5076041;28;20373;-75
2021/09/06 09:39:08;;;;;;;5.10;3.50;;;24.10;60.60;;;;;;5053285;28;20020;-76
2021/09/06 09:41:34;;;;;;;9.15;3.28;;;24.10;63.40;;;;;;5071694;28;20087;-75
2021/09/06 09:44:26;;;;;;;4.38;3.65;;;24.20;59.80;;;;;;5072875;28;20103;-75
2021/09/06 09:46:52;;;;;;;;;;;24.20;59.70;;;;;;5069278;28;20419;-76
2021/09/06 09:49:18;;;;;;;3.22;2.95;;;24.20;60.80;;;;;;5055159;28;19908;-75
2021/09/06 09:51:44;;;;;;;3.20;2.92;;;24.20;61.90;;;;;;5072767;28;20024;-75
2021/09/06 09:54:10;;;;;;;5.70;3.60;;;24.20;63.60;;;;;;5073213;28;20036;-75
2021/09/06 09:56:36;;;;;;;7.30;3.50;;;24.40;61.00;;;;;;5073027;28;20495;-76
2021/09/06 09:59:02;;;;;;;3.42;2.75;;;24.40;63.10;;;;;;5072403;28;20031;-75
2021/09/06 10:01:34;;;;;;;4.57;3.47;;;24.40;63.20;;;;;;5073959;28;20017;-76
2021/09/06 10:04:02;;;;;;;7.28;3.20;;;24.40;62.90;;;;;;5052746;28;20029;-75
2021/09/06 10:06:30;;;;;;;3.88;3.58;;;24.40;57.00;;;;;;5053397;28;20411;-77
2021/09/06 10:08:56;;;;;;;3.63;3.33;;;24.50;56.90;;;;;;5071410;28;20480;-76
2021/09/06 10:11:37;;;;;;;4.03;3.70;;;24.50;58.10;;;;;;5072878;28;20104;-77
2021/09/06 10:14:22;;;;;;;5.43;3.20;;;24.50;59.70;;;;;;5072649;28;20459;-76
2021/09/06 10:17:02;;;;;;;3.85;3.45;;;24.60;57.90;;;;;;5055055;28;20081;-77
2021/09/06 10:19:52;;;;;;;3.60;2.97;;;24.60;57.50;;;;;;5066849;28;20024;-77
2021/09/06 10:22:28;;;;;;;5.07;3.53;;;24.70;57.80;;;;;;5073382;28;20028;-77
2021/09/06 10:25:02;;;;;;;3.58;3.28;;;24.60;58.00;;;;;;5073063;28;20017;-76
2021/09/06 10:27:29;;;;;;;4.05;3.75;;;24.60;57.80;;;;;;5073094;28;20021;-76
2021/09/06 10:30:14;;;;;;;3.95;3.53;;;24.70;58.40;;;;;;5073116;28;20110;-77
2021/09/06 10:32:47;;;;;;;6.38;3.38;;;24.80;59.40;;;;;;5055464;28;20059;-76
2021/09/06 10:35:18;;;;;;;4.20;2.80;;;24.80;60.40;;;;;;5073046;28;20024;-77
2021/09/06 10:37:47;;;;;;;5.90;3.60;;;24.80;59.00;;;;;;5072346;28;20653;-76
2021/09/06 10:40:30;;;;;;;5.82;3.10;;;24.70;60.10;;;;;;5065856;28;20546;-77
2021/09/06 10:42:56;;;;;;;4.15;3.50;;;24.70;62.70;;;;;;5055649;28;20036;-77
2021/09/06 10:45:24;;;;;;;4.70;3.50;;;24.70;62.50;;;;;;5072789;28;20104;-77
2021/09/06 10:48:01;;;;;;;4.05;3.65;;;24.70;58.00;;;;;;5072922;28;20038;-77
2021/09/06 10:50:27;;;;;;;3.20;3.00;;;24.80;58.20;;;;;;5068213;28;20031;-77
2021/09/06 10:52:53;;;;;;;3.92;3.40;;;24.80;58.50;;;;;;5063917;28;20016;-77
2021/09/06 10:55:19;;;;;;;4.97;3.75;;;24.90;56.80;;;;;;5073082;28;20107;-77
2021/09/06 10:57:46;;;;;;;4.07;3.17;;;25.00;56.20;;;;;;5061854;28;20108;-76
2021/09/06 11:00:21;;;;;;;4.90;3.22;;;25.00;59.00;;;;;;5078392;28;20486;-76
2021/09/06 11:02:50;;;;;;;3.65;3.35;;;25.10;57.10;;;;;;5074443;28;20089;-77
2021/09/06 11:05:23;;;;;;;4.50;3.15;;;25.20;56.00;;;;;;5078388;28;20020;-76
2021/09/06 11:07:50;;;;;;;4.85;3.58;;;25.30;55.90;;;;;;5059910;28;20051;-77
2021/09/06 11:10:19;;;;;;;4.35;3.25;;;25.30;56.40;;;;;;5076016;28;20074;-77
2021/09/06 11:12:55;;;;;;;6.68;3.55;;;25.30;57.20;;;;;;5073457;28;20025;-76
2021/09/06 11:15:26;;;;;;;5.95;3.78;;;25.40;58.50;;;;;;5073099;28;20085;-77
2021/09/06 11:18:10;;;;;;;4.70;3.40;;;25.40;58.20;;;;;;5073269;28;20055;-77
2021/09/06 11:20:37;;;;;;;4.60;3.30;;;25.50;58.30;;;;;;5072802;28;20020;-77
2021/09/06 11:23:07;;;;;;;9.10;3.33;;;25.60;58.60;;;;;;5073304;28;20055;-77
2021/09/06 11:25:35;;;;;;;5.65;3.58;;;25.70;57.80;;;;;;5080113;28;20373;-77
2021/09/06 11:28:04;;;;;;;5.30;3.15;;;25.80;56.90;;;;;;5062534;28;20024;-77
2021/09/06 11:30:33;;;;;;;6.65;3.53;;;25.90;55.90;;;;;;5056247;28;20056;-77
2021/09/06 11:33:01;;;;;;;13.15;3.75;;;26.00;55.40;;;;;;5058023;28;20021;-78
2021/09/06 11:35:27;;;;;;;3.95;3.63;;;26.10;53.20;;;;;;5072372;28;20614;-76
2021/09/06 11:37:53;;;;;;;3.50;3.20;;;26.10;52.10;;;;;;5072692;28;20020;-77
2021/09/06 11:40:19;;;;;;;7.05;2.95;;;26.30;51.60;;;;;;5072365;28;20150;-77
2021/09/06 11:42:45;;;;;;;5.82;3.08;;;26.20;52.60;;;;;;5072690;28;20588;-77
2021/09/06 11:45:14;;;;;;;4.07;3.08;;;26.30;51.90;;;;;;5072655;28;20032;-77
2021/09/06 11:47:40;;;;;;;4.10;3.70;;;26.30;52.20;;;;;;5072485;28;20020;-77
2021/09/06 11:50:09;;;;;;;4.07;3.70;;;26.30;52.20;;;;;;5071700;28;20028;-77
2021/09/06 11:52:37;;;;;;;3.63;3.33;;;26.20;52.70;;;;;;5067418;28;20038;-77
2021/09/06 11:55:10;;;;;;;4.32;3.72;;;26.20;54.20;;;;;;5072494;28;20379;-77
2021/09/06 11:57:35;;;;;;;5.32;3.55;;;26.20;53.80;;;;;;5077017;28;20375;-77
2021/09/06 12:00:03;;;;;;;3.47;3.17;;;26.20;55.20;;;;;;5074675;28;20027;-77
2021/09/06 12:02:29;;;;;;;5.97;3.78;;;26.40;54.10;;;;;;5054557;28;20086;-76
2021/09/06 12:05:15;;;;;;;7.28;4.30;;;26.50;54.90;;;;;;5068743;28;20034;-77
2021/09/06 12:07:52;;;;;;;4.22;3.47;;;26.60;55.50;;;;;;5069564;28;20020;-77
2021/09/06 12:10:32;;;;;;;5.57;3.58;;;26.60;56.10;;;;;;5065587;28;20062;-77
2021/09/06 12:13:03;;;;;;;3.65;3.35;;;26.90;53.40;;;;;;5072000;28;20017;-76
2021/09/06 12:15:30;;;;;;;3.70;3.40;;;27.00;52.00;;;;;;5071771;28;20560;-76
2021/09/06 12:18:12;;;;;;;4.50;3.38;;;27.10;52.30;;;;;;5071998;28;20029;-76
2021/09/06 12:20:41;;;;;;;3.15;2.95;;;27.10;53.30;;;;;;5077323;28;20103;-76
2021/09/06 12:23:08;;;;;;;3.78;3.47;;;27.10;54.00;;;;;;5062749;28;20035;-76
2021/09/06 12:25:35;;;;;;;4.70;3.97;;;27.30;51.40;;;;;;5071784;28;20090;-76
2021/09/06 12:28:13;;;;;;;5.75;3.58;;;27.20;51.00;;;;;;5071801;28;20028;-76
2021/09/06 12:30:41;;;;;;;4.25;3.38;;;27.20;51.40;;;;;;5075649;28;20025;-76
2021/09/06 12:33:08;;;;;;;3.28;3.08;;;27.20;53.90;;;;;;5071711;28;20024;-76
2021/09/06 12:35:34;;;;;;;3.65;3.10;;;27.40;53.00;;;;;;5072002;28;20028;-76
2021/09/06 12:38:00;;;;;;;3.75;3.45;;;27.50;52.50;;;;;;5071875;28;20017;-76
2021/09/06 12:40:26;;;;;;;4.10;3.60;;;27.60;51.20;;;;;;5071097;28;20031;-76
2021/09/06 12:42:51;;;;;;;3.85;3.53;;;27.60;50.40;;;;;;5074178;28;20100;-76
2021/09/06 12:45:18;;;;;;;4.28;3.10;;;27.70;51.00;;;;;;5075992;28;20111;-76
2021/09/06 12:47:44;;;;;;;3.97;3.60;;;27.80;50.40;;;;;;5075349;28;20502;-76
2021/09/06 12:50:11;;;;;;;5.25;3.83;;;27.70;50.00;;;;;;5068505;28;20028;-76